createdAt,value
2017-12-06T00:00:07.278Z,94.40
2017-12-06T00:02:35.169Z,94.60
2017-12-06T00:05:03.134Z,95.10
2017-12-06T00:07:33.160Z,94.80
2017-12-06T00:10:01.070Z,94.60
2017-12-06T00:12:35.198Z,94.40
2017-12-06T00:15:08.764Z,94.40
2017-12-06T00:17:36.635Z,94.80
2017-12-06T00:20:04.574Z,94.80
2017-12-06T00:22:32.540Z,95.10
2017-12-06T00:25:00.535Z,95.20
2017-12-06T00:27:33.417Z,95.30
2017-12-06T00:30:01.360Z,95.50
2017-12-06T00:32:29.287Z,95.20
2017-12-06T00:34:59.897Z,94.80
2017-12-06T00:37:27.795Z,94.80
2017-12-06T00:39:55.658Z,94.80
2017-12-06T00:42:24.336Z,95.10
2017-12-06T00:44:52.986Z,95.20
2017-12-06T00:47:20.938Z,95.20
2017-12-06T00:49:48.830Z,95.20
2017-12-06T00:52:16.759Z,95.30
2017-12-06T00:54:44.628Z,94.90
2017-12-06T00:57:14.368Z,94.90
2017-12-06T00:59:42.237Z,95.00
2017-12-06T01:02:10.164Z,95.00
2017-12-06T01:04:38.029Z,94.90
2017-12-06T01:07:05.974Z,94.80
2017-12-06T01:09:33.891Z,94.80
2017-12-06T01:12:01.825Z,95.20
2017-12-06T01:14:30.456Z,95.10
2017-12-06T01:16:58.368Z,95.00
2017-12-06T01:19:26.244Z,94.90
2017-12-06T01:21:54.161Z,94.50
2017-12-06T01:24:22.041Z,94.60
2017-12-06T01:26:49.950Z,95.30
2017-12-06T01:29:18.586Z,94.60
2017-12-06T01:31:46.499Z,94.60
2017-12-06T01:34:14.376Z,94.80
2017-12-06T01:36:42.314Z,95.00
2017-12-06T01:39:10.212Z,94.80
2017-12-06T01:41:38.079Z,94.70
2017-12-06T01:44:06.796Z,95.30
2017-12-06T01:46:34.731Z,95.30
2017-12-06T01:49:03.470Z,94.90
2017-12-06T01:51:31.371Z,94.90
2017-12-06T01:53:59.348Z,94.90
2017-12-06T01:56:27.440Z,94.90
2017-12-06T01:58:56.200Z,95.10
2017-12-06T02:01:24.101Z,95.10
2017-12-06T02:03:52.047Z,95.50
2017-12-06T02:06:19.967Z,95.60
2017-12-06T02:08:47.906Z,95.50
2017-12-06T02:11:15.795Z,95.90
2017-12-06T02:13:43.715Z,95.60
2017-12-06T02:16:11.620Z,95.80
2017-12-06T02:18:39.547Z,95.90
2017-12-06T02:21:07.488Z,95.70
2017-12-06T02:23:35.466Z,95.50
2017-12-06T02:26:10.399Z,95.20
2017-12-06T02:28:38.401Z,95.40
2017-12-06T02:31:06.296Z,95.30
2017-12-06T02:33:35.077Z,95.50
2017-12-06T02:36:03.745Z,95.40
2017-12-06T02:38:31.707Z,95.40
2017-12-06T02:41:11.361Z,95.30
2017-12-06T02:43:50.954Z,95.50
2017-12-06T02:46:18.861Z,95.10
2017-12-06T02:48:46.847Z,95.10
2017-12-06T02:51:14.731Z,95.20
2017-12-06T02:53:42.725Z,95.30
2017-12-06T02:56:10.669Z,95.50
2017-12-06T02:58:39.350Z,95.50
2017-12-06T03:01:08.065Z,95.60
2017-12-06T03:03:35.970Z,95.60
2017-12-06T03:06:03.942Z,95.10
2017-12-06T03:08:31.857Z,95.30
2017-12-06T03:10:59.803Z,95.30
2017-12-06T03:13:27.737Z,95.00
2017-12-06T03:15:59.581Z,95.20
2017-12-06T03:18:27.493Z,95.50
2017-12-06T03:20:55.425Z,95.20
2017-12-06T03:23:23.317Z,95.10
2017-12-06T03:25:51.238Z,95.10
2017-12-06T03:28:19.905Z,95.10
2017-12-06T03:30:47.852Z,95.10
2017-12-06T03:33:15.756Z,95.30
2017-12-06T03:35:44.458Z,94.80
2017-12-06T03:38:12.348Z,94.80
2017-12-06T03:40:40.302Z,94.60
2017-12-06T03:43:08.206Z,95.30
2017-12-06T03:45:36.156Z,95.00
2017-12-06T03:48:04.045Z,95.00
2017-12-06T03:50:31.988Z,95.00
2017-12-06T03:52:59.866Z,95.10
2017-12-06T03:55:27.812Z,94.90
2017-12-06T03:57:55.748Z,95.20
2017-12-06T04:00:23.708Z,95.00
2017-12-06T04:02:51.606Z,95.00
2017-12-06T04:05:19.490Z,95.10
2017-12-06T04:07:47.599Z,95.00
2017-12-06T04:10:15.494Z,94.90
2017-12-06T04:12:43.423Z,95.10
2017-12-06T04:15:11.313Z,95.30
2017-12-06T04:17:39.245Z,94.60
2017-12-06T04:20:07.139Z,94.80
2017-12-06T04:22:39.078Z,94.90
2017-12-06T04:25:06.960Z,95.00
2017-12-06T04:27:34.900Z,94.70
2017-12-06T04:30:02.784Z,94.50
2017-12-06T04:32:30.730Z,94.60
2017-12-06T04:34:58.676Z,94.70
2017-12-06T04:37:30.297Z,94.50
2017-12-06T04:39:58.199Z,94.60
2017-12-06T04:42:26.165Z,94.90
2017-12-06T04:44:54.064Z,94.90
2017-12-06T04:47:22.781Z,95.00
2017-12-06T04:49:50.702Z,95.00
2017-12-06T04:52:18.643Z,94.90
2017-12-06T04:54:46.572Z,95.10
2017-12-06T04:57:14.526Z,95.30
2017-12-06T04:59:43.180Z,94.80
2017-12-06T05:02:11.104Z,94.80
2017-12-06T05:04:39.016Z,94.90
2017-12-06T05:07:10.654Z,95.50
2017-12-06T05:09:38.579Z,94.60
2017-12-06T05:12:07.253Z,94.30
2017-12-06T05:14:43.114Z,94.30
2017-12-06T05:17:13.433Z,94.10
2017-12-06T05:19:45.203Z,94.10
2017-12-06T05:22:19.269Z,94.60
2017-12-06T05:24:53.469Z,94.70
2017-12-06T05:27:26.660Z,94.70
2017-12-06T05:29:56.403Z,94.40
2017-12-06T05:32:25.897Z,94.80
2017-12-06T05:34:55.352Z,94.60
2017-12-06T05:37:23.341Z,94.60
2017-12-06T05:39:51.304Z,94.40
2017-12-06T05:42:19.196Z,94.70
2017-12-06T05:44:47.176Z,94.60
2017-12-06T05:47:15.226Z,94.50
2017-12-06T05:49:48.596Z,94.60
2017-12-06T05:52:23.276Z,94.40
2017-12-06T05:54:59.248Z,94.70
2017-12-06T05:57:28.110Z,94.40
2017-12-06T05:59:58.284Z,94.60
2017-12-06T06:02:26.268Z,94.60
2017-12-06T06:04:54.208Z,94.60
2017-12-06T06:07:30.511Z,94.50
2017-12-06T06:09:58.466Z,94.80
2017-12-06T06:12:26.425Z,94.80
2017-12-06T06:14:54.381Z,94.80
2017-12-06T06:17:22.263Z,94.90
2017-12-06T06:19:50.207Z,94.80
2017-12-06T06:22:18.093Z,94.80
2017-12-06T06:24:46.057Z,94.80
2017-12-06T06:27:13.957Z,95.10
2017-12-06T06:29:41.926Z,94.80
2017-12-06T06:32:09.816Z,94.70
2017-12-06T06:34:37.755Z,94.80
2017-12-06T06:37:06.532Z,94.90
2017-12-06T06:39:34.477Z,94.90
2017-12-06T06:42:02.389Z,94.70
2017-12-06T06:44:31.023Z,94.80
2017-12-06T06:46:58.976Z,94.80
2017-12-06T06:49:26.870Z,94.80
2017-12-06T06:51:54.909Z,94.70
2017-12-06T06:54:22.832Z,94.70
2017-12-06T06:56:50.801Z,94.80
2017-12-06T06:59:18.696Z,94.70
2017-12-06T07:01:46.637Z,94.60
2017-12-06T07:04:14.528Z,94.70
2017-12-06T07:06:44.423Z,94.40
2017-12-06T07:09:12.342Z,94.40
2017-12-06T07:11:40.288Z,95.00
2017-12-06T07:14:08.948Z,94.30
2017-12-06T07:16:36.874Z,94.30
2017-12-06T07:19:04.765Z,94.20
2017-12-06T07:21:32.704Z,94.70
2017-12-06T07:24:00.675Z,94.10
2017-12-06T07:26:28.675Z,94.50
2017-12-06T07:28:56.672Z,94.50
2017-12-06T07:31:24.683Z,94.40
2017-12-06T07:33:52.608Z,94.70
2017-12-06T07:36:20.590Z,94.40
2017-12-06T07:38:48.490Z,94.40
2017-12-06T07:41:16.450Z,94.30
2017-12-06T07:43:44.374Z,94.50
2017-12-06T07:46:12.321Z,94.00
2017-12-06T07:48:40.284Z,94.30
2017-12-06T07:51:08.181Z,94.40
2017-12-06T07:53:36.129Z,94.30
2017-12-06T07:56:04.034Z,94.20
2017-12-06T07:58:37.464Z,94.50
2017-12-06T08:01:05.374Z,94.60
2017-12-06T08:03:33.326Z,94.40
2017-12-06T08:06:01.264Z,94.70
2017-12-06T08:08:29.213Z,94.80
2017-12-06T08:10:57.909Z,94.60
2017-12-06T08:13:25.888Z,94.60
2017-12-06T08:15:53.787Z,94.80
2017-12-06T08:18:21.783Z,94.50
2017-12-06T08:20:49.729Z,94.40
2017-12-06T08:23:17.697Z,94.60
2017-12-06T08:25:45.696Z,94.10
2017-12-06T08:28:13.673Z,94.50
2017-12-06T08:30:41.664Z,94.40
2017-12-06T08:33:09.580Z,94.70
2017-12-06T08:35:37.552Z,94.40
2017-12-06T08:38:05.497Z,94.20
2017-12-06T08:40:33.445Z,94.40
2017-12-06T08:43:01.374Z,94.30
2017-12-06T08:45:29.356Z,94.00
2017-12-06T08:47:57.339Z,94.10
2017-12-06T08:50:25.313Z,94.70
2017-12-06T08:52:53.288Z,94.40
2017-12-06T08:55:21.217Z,94.20
2017-12-06T08:57:49.181Z,94.10
2017-12-06T09:00:17.125Z,93.70
2017-12-06T09:02:45.106Z,93.80
2017-12-06T09:05:13.027Z,93.90
2017-12-06T09:07:41.005Z,94.00
2017-12-06T09:10:08.981Z,94.10
2017-12-06T09:12:37.018Z,94.00
2017-12-06T09:15:04.960Z,93.90
2017-12-06T09:17:35.023Z,93.50
2017-12-06T09:20:02.981Z,93.60
2017-12-06T09:22:30.944Z,93.30
2017-12-06T09:24:58.858Z,93.40
2017-12-06T09:27:26.827Z,93.50
2017-12-06T09:29:54.758Z,93.50
2017-12-06T09:32:22.743Z,93.90
2017-12-06T09:34:50.708Z,93.90
2017-12-06T09:37:18.684Z,93.80
2017-12-06T09:39:47.238Z,93.50
2017-12-06T09:42:15.239Z,93.10
2017-12-06T09:44:43.270Z,93.20
2017-12-06T09:47:12.167Z,92.90
2017-12-06T09:49:40.074Z,93.10
2017-12-06T09:52:08.073Z,93.10
2017-12-06T09:54:36.769Z,93.00
2017-12-06T09:57:04.788Z,93.00
2017-12-06T09:59:32.720Z,93.20
2017-12-06T10:02:03.038Z,93.20
2017-12-06T10:04:30.928Z,92.70
2017-12-06T10:06:58.908Z,92.60
2017-12-06T10:09:26.824Z,92.70
2017-12-06T10:11:54.725Z,92.90
2017-12-06T10:14:22.694Z,93.30
2017-12-06T10:16:50.890Z,93.00
2017-12-06T10:19:18.881Z,92.80
2017-12-06T10:21:46.828Z,92.60
2017-12-06T10:24:14.816Z,92.60
2017-12-06T10:26:42.850Z,92.60
2017-12-06T10:29:10.813Z,92.70
2017-12-06T10:31:38.780Z,92.70
2017-12-06T10:34:08.224Z,92.50
2017-12-06T10:36:36.482Z,92.60
2017-12-06T10:39:04.614Z,92.70
2017-12-06T10:41:32.549Z,92.90
2017-12-06T10:44:00.589Z,93.20
2017-12-06T10:46:28.865Z,92.40
2017-12-06T10:48:56.842Z,92.60
2017-12-06T10:51:24.773Z,92.40
2017-12-06T10:53:53.840Z,92.60
2017-12-06T10:56:21.781Z,92.60
2017-12-06T10:58:49.776Z,92.20
2017-12-06T11:01:17.670Z,92.30
2017-12-06T11:03:45.730Z,92.60
2017-12-06T11:06:13.672Z,92.60
2017-12-06T11:08:41.702Z,92.60
2017-12-06T11:11:10.369Z,92.00
2017-12-06T11:13:38.337Z,92.00
2017-12-06T11:16:06.340Z,92.50
2017-12-06T11:18:34.290Z,91.90
2017-12-06T11:21:02.246Z,92.00
2017-12-06T11:23:30.192Z,92.40
2017-12-06T11:25:58.128Z,93.30
2017-12-06T11:28:26.088Z,92.50
2017-12-06T11:30:54.044Z,92.30
2017-12-06T11:33:23.877Z,92.30
2017-12-06T11:35:51.911Z,92.60
2017-12-06T11:38:19.818Z,92.00
2017-12-06T11:40:47.790Z,92.00
2017-12-06T11:43:15.671Z,92.10
2017-12-06T11:45:43.642Z,91.80
2017-12-06T11:48:11.627Z,91.70
2017-12-06T11:50:39.617Z,91.90
2017-12-06T11:53:07.916Z,92.00
2017-12-06T11:55:35.926Z,91.70
2017-12-06T11:58:04.072Z,91.40
2017-12-06T12:00:32.235Z,91.50
2017-12-06T12:03:00.119Z,91.30
2017-12-06T12:05:28.803Z,91.10
2017-12-06T12:07:56.917Z,91.10
2017-12-06T12:10:24.908Z,91.10
2017-12-06T12:12:52.824Z,91.30
2017-12-06T12:15:20.748Z,91.90
2017-12-06T12:17:48.900Z,91.30
2017-12-06T12:20:16.807Z,91.70
2017-12-06T12:22:44.961Z,92.50
2017-12-06T12:25:12.859Z,92.70
2017-12-06T12:27:41.483Z,92.00
2017-12-06T12:30:09.375Z,92.10
2017-12-06T12:32:37.330Z,91.30
2017-12-06T12:35:05.235Z,91.20
2017-12-06T12:37:33.318Z,91.30
2017-12-06T12:40:02.019Z,91.30
2017-12-06T12:42:32.963Z,91.20
2017-12-06T12:45:00.914Z,91.20
2017-12-06T12:47:28.946Z,90.80
2017-12-06T12:49:56.938Z,91.40
2017-12-06T12:52:24.968Z,90.90
2017-12-06T12:54:53.774Z,91.00
2017-12-06T12:57:22.054Z,91.00
2017-12-06T12:59:50.030Z,91.30
2017-12-06T13:02:20.029Z,91.30
2017-12-06T13:04:48.012Z,91.30
2017-12-06T13:07:16.036Z,91.50
2017-12-06T13:09:44.711Z,91.70
2017-12-06T13:12:13.251Z,91.40
2017-12-06T13:14:41.271Z,91.20
2017-12-06T13:17:09.307Z,91.10
2017-12-06T13:19:37.630Z,91.40
2017-12-06T13:22:05.639Z,91.20
2017-12-06T13:24:33.684Z,91.40
2017-12-06T13:27:01.736Z,91.60
2017-12-06T13:29:29.885Z,91.30
2017-12-06T13:31:58.248Z,91.60
2017-12-06T13:34:27.503Z,91.50
2017-12-06T13:36:55.623Z,91.40
2017-12-06T13:39:23.671Z,91.90
2017-12-06T13:41:51.638Z,92.10
2017-12-06T13:44:20.422Z,92.20
2017-12-06T13:46:49.396Z,92.10
2017-12-06T13:49:17.567Z,92.00
2017-12-06T13:51:45.931Z,91.90
2017-12-06T13:54:14.052Z,91.80
2017-12-06T13:56:42.048Z,91.90
2017-12-06T13:59:10.142Z,91.70
2017-12-06T14:01:38.356Z,91.90
2017-12-06T14:04:06.346Z,91.70
2017-12-06T14:06:34.315Z,91.80
2017-12-06T14:09:02.366Z,92.10
2017-12-06T14:11:31.109Z,92.30
2017-12-06T14:13:59.124Z,92.30
2017-12-06T14:16:27.180Z,92.60
2017-12-06T14:18:55.205Z,92.40
2017-12-06T14:21:23.183Z,92.50
2017-12-06T14:23:51.229Z,92.70
2017-12-06T14:26:19.211Z,93.00
2017-12-06T14:28:47.243Z,93.30
2017-12-06T14:31:15.241Z,93.50
2017-12-06T14:33:43.996Z,94.00
2017-12-06T14:36:12.290Z,94.00
2017-12-06T14:38:40.274Z,94.20
2017-12-06T14:41:08.295Z,94.20
2017-12-06T14:43:36.284Z,94.50
2017-12-06T14:46:04.411Z,94.70
2017-12-06T14:48:32.393Z,94.80
2017-12-06T14:51:00.433Z,94.80
2017-12-06T14:53:29.217Z,95.00
2017-12-06T14:55:57.266Z,95.00
2017-12-06T14:58:25.287Z,94.90
2017-12-06T15:00:53.330Z,95.10
2017-12-06T15:03:22.085Z,95.30
2017-12-06T15:05:50.109Z,95.30
2017-12-06T15:08:18.080Z,95.30
2017-12-06T15:10:46.134Z,95.60
2017-12-06T15:13:14.185Z,95.60
2017-12-06T15:15:42.220Z,95.90
2017-12-06T15:18:10.181Z,96.00
2017-12-06T15:20:38.185Z,95.90
2017-12-06T15:23:06.176Z,96.20
2017-12-06T15:25:34.216Z,96.00
2017-12-06T15:28:02.215Z,96.20
2017-12-06T15:30:30.229Z,96.20
2017-12-06T15:32:58.206Z,96.30
2017-12-06T15:35:26.584Z,96.30
2017-12-06T15:38:07.077Z,96.40
2017-12-06T15:40:35.248Z,96.50
2017-12-06T15:43:03.223Z,96.50
2017-12-06T15:45:31.329Z,96.50
2017-12-06T15:47:59.363Z,96.60
2017-12-06T15:50:27.328Z,96.50
2017-12-06T15:52:55.330Z,96.50
2017-12-06T15:55:23.283Z,96.50
2017-12-06T15:57:51.318Z,96.60
2017-12-06T16:00:19.304Z,96.70
2017-12-06T16:02:47.351Z,96.70
2017-12-06T16:05:15.289Z,96.80
2017-12-06T16:07:43.300Z,96.90
2017-12-06T16:10:11.269Z,97.00
2017-12-06T16:12:39.290Z,97.00
2017-12-06T16:15:07.382Z,97.00
2017-12-06T16:17:35.402Z,97.10
2017-12-06T16:20:03.344Z,96.90
2017-12-06T16:22:31.342Z,97.10
2017-12-06T16:24:59.379Z,97.20
2017-12-06T16:27:27.445Z,97.40
2017-12-06T16:29:55.429Z,97.40
2017-12-06T16:32:23.470Z,97.30
2017-12-06T16:35:03.166Z,97.60
2017-12-06T16:37:31.935Z,97.30
2017-12-06T16:40:00.694Z,97.40
2017-12-06T16:42:28.798Z,97.40
2017-12-06T16:44:56.774Z,97.30
2017-12-06T16:47:24.820Z,97.30
2017-12-06T16:49:53.588Z,97.20
2017-12-06T16:52:21.638Z,97.20
2017-12-06T16:54:49.603Z,97.20
2017-12-06T16:57:19.542Z,97.10
2017-12-06T16:59:47.539Z,97.10
2017-12-06T17:02:16.315Z,97.30
2017-12-06T17:04:44.351Z,97.20
2017-12-06T17:07:12.305Z,97.10
2017-12-06T17:09:40.382Z,97.20
2017-12-06T17:12:08.353Z,97.40
2017-12-06T17:14:36.386Z,97.50
2017-12-06T17:17:04.348Z,97.30
2017-12-06T17:19:32.382Z,97.30
2017-12-06T17:22:00.334Z,97.40
2017-12-06T17:24:28.357Z,97.40
2017-12-06T17:26:56.414Z,97.30
2017-12-06T17:29:36.224Z,97.40
2017-12-06T17:32:04.166Z,97.40
2017-12-06T17:34:32.963Z,97.60
2017-12-06T17:37:00.949Z,97.60
2017-12-06T17:39:29.000Z,97.60
2017-12-06T17:41:57.739Z,97.50
2017-12-06T17:44:26.128Z,97.50
2017-12-06T17:46:56.382Z,97.40
2017-12-06T17:49:25.048Z,97.40
2017-12-06T17:51:53.121Z,97.60
2017-12-06T17:54:21.152Z,97.50
2017-12-06T17:56:50.093Z,97.40
2017-12-06T17:59:18.122Z,97.20
2017-12-06T18:01:46.080Z,97.20
2017-12-06T18:04:14.107Z,97.30
2017-12-06T18:06:42.103Z,97.30
2017-12-06T18:09:10.822Z,97.30
2017-12-06T18:11:38.828Z,97.20
2017-12-06T18:14:06.801Z,97.30
2017-12-06T18:16:34.875Z,97.30
2017-12-06T18:19:02.851Z,97.30
2017-12-06T18:21:30.857Z,97.20
2017-12-06T18:23:58.857Z,97.30
2017-12-06T18:26:26.891Z,97.30
2017-12-06T18:28:55.685Z,97.30
2017-12-06T18:31:23.719Z,97.30
2017-12-06T18:33:51.647Z,97.30
2017-12-06T18:36:24.311Z,97.40
2017-12-06T18:38:52.305Z,97.30
2017-12-06T18:41:20.298Z,97.30
2017-12-06T18:43:48.308Z,97.40
2017-12-06T18:46:24.542Z,97.40
2017-12-06T18:48:52.443Z,97.30
2017-12-06T18:51:20.401Z,97.30
2017-12-06T18:53:48.334Z,97.20
2017-12-06T18:56:20.802Z,97.10
2017-12-06T18:58:55.309Z,97.20
2017-12-06T19:01:29.190Z,97.10
2017-12-06T19:03:57.604Z,97.10
2017-12-06T19:06:25.684Z,97.10
2017-12-06T19:08:53.586Z,96.90
2017-12-06T19:11:21.543Z,96.90
2017-12-06T19:13:49.449Z,97.00
2017-12-06T19:16:18.189Z,96.90
2017-12-06T19:18:46.109Z,96.90
2017-12-06T19:21:15.676Z,96.90
2017-12-06T19:23:44.668Z,97.00
2017-12-06T19:26:12.668Z,96.80
2017-12-06T19:28:41.218Z,96.60
2017-12-06T19:31:09.589Z,96.70
2017-12-06T19:33:38.224Z,96.80
2017-12-06T19:36:13.390Z,96.90
2017-12-06T19:38:42.924Z,96.90
2017-12-06T19:41:11.736Z,96.90
2017-12-06T19:43:40.982Z,96.90
2017-12-06T19:46:10.403Z,96.90
2017-12-06T19:48:39.462Z,96.90
2017-12-06T19:51:08.527Z,97.00
2017-12-06T19:53:37.458Z,96.90
2017-12-06T19:56:07.064Z,96.80
2017-12-06T19:58:35.433Z,96.80
2017-12-06T20:01:03.474Z,96.70
2017-12-06T20:03:31.416Z,96.90
2017-12-06T20:06:00.254Z,96.90
2017-12-06T20:08:29.158Z,96.90
2017-12-06T20:10:58.583Z,97.20
2017-12-06T20:13:27.263Z,97.20
2017-12-06T20:15:56.069Z,97.30
2017-12-06T20:18:28.878Z,97.10
2017-12-06T20:20:57.190Z,97.10
2017-12-06T20:23:25.933Z,97.10
2017-12-06T20:25:54.908Z,97.00
2017-12-06T20:28:23.238Z,96.90
2017-12-06T20:30:51.985Z,96.90
2017-12-06T20:33:26.416Z,96.90
2017-12-06T20:35:54.890Z,97.10
2017-12-06T20:38:23.221Z,97.00
2017-12-06T20:40:51.427Z,97.10
2017-12-06T20:43:19.717Z,97.10
2017-12-06T20:45:47.652Z,97.20
2017-12-06T20:48:15.599Z,97.10
2017-12-06T20:50:44.181Z,97.20
2017-12-06T20:53:12.137Z,97.10
2017-12-06T20:55:40.071Z,97.10
2017-12-06T20:58:08.000Z,96.90
2017-12-06T21:00:36.046Z,97.00
2017-12-06T21:03:04.079Z,97.00
2017-12-06T21:05:32.033Z,97.00
2017-12-06T21:08:00.719Z,97.10
2017-12-06T21:10:29.430Z,96.90
2017-12-06T21:12:58.280Z,96.90
2017-12-06T21:15:26.238Z,97.00
2017-12-06T21:17:54.253Z,97.00
2017-12-06T21:20:23.049Z,96.90
2017-12-06T21:22:50.988Z,96.90
2017-12-06T21:25:20.158Z,96.70
2017-12-06T21:27:48.848Z,96.70
2017-12-06T21:30:16.841Z,96.70
2017-12-06T21:32:45.119Z,96.70
2017-12-06T21:35:13.055Z,96.80
2017-12-06T21:37:41.069Z,96.90
2017-12-06T21:40:09.031Z,96.70
2017-12-06T21:42:41.180Z,96.80
2017-12-06T21:45:09.568Z,96.80
2017-12-06T21:47:37.534Z,97.00
2017-12-06T21:50:05.688Z,96.80
2017-12-06T21:52:33.664Z,96.80
2017-12-06T21:55:04.558Z,96.60
2017-12-06T21:57:33.252Z,96.40
2017-12-06T22:00:01.276Z,96.40
2017-12-06T22:02:29.788Z,96.40
2017-12-06T22:05:11.883Z,96.10
2017-12-06T22:07:40.409Z,95.40
2017-12-06T22:10:08.357Z,94.70
2017-12-06T22:12:36.228Z,93.90
2017-12-06T22:15:04.212Z,94.10
2017-12-06T22:17:34.496Z,93.40
2017-12-06T22:20:02.515Z,92.80
2017-12-06T22:22:30.440Z,92.90
2017-12-06T22:24:58.337Z,93.10
2017-12-06T22:27:26.321Z,92.60
2017-12-06T22:29:54.203Z,92.40
2017-12-06T22:32:22.204Z,92.10
2017-12-06T22:34:50.101Z,92.50
2017-12-06T22:37:18.014Z,92.20
2017-12-06T22:39:45.897Z,92.20
2017-12-06T22:42:13.865Z,91.80
2017-12-06T22:44:41.824Z,91.30
2017-12-06T22:47:09.801Z,90.90
2017-12-06T22:49:37.719Z,91.30
2017-12-06T22:52:05.675Z,91.00
2017-12-06T22:54:34.396Z,90.60
2017-12-06T22:57:02.637Z,90.60
2017-12-06T22:59:30.547Z,90.40
2017-12-06T23:01:58.554Z,90.80
2017-12-06T23:04:26.448Z,90.70
2017-12-06T23:06:55.171Z,90.90
2017-12-06T23:09:23.108Z,90.90
2017-12-06T23:11:51.872Z,91.10
2017-12-06T23:14:19.802Z,91.10
2017-12-06T23:16:47.722Z,91.20
2017-12-06T23:19:15.689Z,91.20
2017-12-06T23:21:43.690Z,91.40
2017-12-06T23:24:12.060Z,91.50
2017-12-06T23:26:40.164Z,91.30
2017-12-06T23:29:08.439Z,91.30
2017-12-06T23:31:36.455Z,91.50
2017-12-06T23:34:04.567Z,91.80
2017-12-06T23:36:32.564Z,92.00
2017-12-06T23:39:00.499Z,91.70
2017-12-06T23:41:28.735Z,91.90
2017-12-06T23:43:56.767Z,92.20
2017-12-06T23:46:29.256Z,92.00
2017-12-06T23:48:57.200Z,91.80
2017-12-06T23:51:25.084Z,91.70
2017-12-06T23:53:53.029Z,91.70
2017-12-06T23:56:20.924Z,91.80
2017-12-06T23:58:48.879Z,91.60
